sensor_id;sensor_type;location;lat;lon;timestamp;pressure;altitude;pressure_sealevel;temperature;humidity
12969;BME280;6549;53.128;8.182;2023-04-09T00:00:42;102493.94;;;7.88;100.00
12969;BME280;6549;53.128;8.182;2023-04-09T00:03:43;102484.94;;;7.88;100.00
12969;BME280;6549;53.128;8.182;2023-04-09T00:06:43;102487.03;;;7.91;100.00
12969;BME280;6549;53.128;8.182;2023-04-09T00:09:44;102492.50;;;7.91;100.00
12969;BME280;6549;53.128;8.182;2023-04-09T00:12:44;102495.41;;;7.86;100.00
12969;BME280;6549;53.128;8.182;2023-04-09T00:15:45;102483.50;;;7.82;100.00
12969;BME280;6549;53.128;8.182;2023-04-09T00:18:45;102488.97;;;7.82;100.00
12969;BME280;6549;53.128;8.182;2023-04-09T00:21:46;102485.13;;;7.83;100.00
12969;BME280;6549;53.128;8.182;2023-04-09T00:24:47;102487.88;;;7.83;100.00
12969;BME280;6549;53.128;8.182;2023-04-09T00:27:47;102478.19;;;7.85;100.00
12969;BME280;6549;53.128;8.182;2023-04-09T00:30:48;102489.94;;;7.86;100.00
12969;BME280;6549;53.128;8.182;2023-04-09T00:33:48;102481.91;;;7.81;100.00
12969;BME280;6549;53.128;8.182;2023-04-09T00:36:48;102476.59;;;7.76;100.00
12969;BME280;6549;53.128;8.182;2023-04-09T00:39:49;102477.91;;;7.70;100.00
12969;BME280;6549;53.128;8.182;2023-04-09T00:42:49;102475.16;;;7.70;100.00
12969;BME280;6549;53.128;8.182;2023-04-09T00:45:50;102467.09;;;7.73;100.00
12969;BME280;6549;53.128;8.182;2023-04-09T00:48:50;102460.34;;;7.62;100.00
12969;BME280;6549;53.128;8.182;2023-04-09T00:51:51;102468.41;;;7.58;100.00
12969;BME280;6549;53.128;8.182;2023-04-09T00:54:52;102464.69;;;7.63;100.00
12969;BME280;6549;53.128;8.182;2023-04-09T00:57:52;102457.47;;;7.58;100.00
12969;BME280;6549;53.128;8.182;2023-04-09T01:00:52;102464.53;;;7.59;100.00
12969;BME280;6549;53.128;8.182;2023-04-09T01:03:53;102460.34;;;7.53;100.00
12969;BME280;6549;53.128;8.182;2023-04-09T01:07:12;102454.88;;;7.53;100.00
12969;BME280;6549;53.128;8.182;2023-04-09T01:10:51;102456.81;;;7.53;100.00
12969;BME280;6549;53.128;8.182;2023-04-09T01:14:22;102466.63;;;7.54;100.00
12969;BME280;6549;53.128;8.182;2023-04-09T01:20:38;102449.25;;;7.50;100.00
12969;BME280;6549;53.128;8.182;2023-04-09T01:29:52;102462.63;;;7.51;100.00
12969;BME280;6549;53.128;8.182;2023-04-09T01:32:53;102463.91;;;7.54;100.00
12969;BME280;6549;53.128;8.182;2023-04-09T01:35:57;102457.16;;;7.51;100.00
12969;BME280;6549;53.128;8.182;2023-04-09T01:39:02;102456.19;;;7.47;100.00
12969;BME280;6549;53.128;8.182;2023-04-09T01:42:03;102456.81;;;7.44;100.00
12969;BME280;6549;53.128;8.182;2023-04-09T01:45:05;102454.59;;;7.46;100.00
12969;BME280;6549;53.128;8.182;2023-04-09T01:48:06;102452.16;;;7.45;100.00
12969;BME280;6549;53.128;8.182;2023-04-09T01:51:07;102464.56;;;7.42;100.00
12969;BME280;6549;53.128;8.182;2023-04-09T01:54:07;102454.25;;;7.39;100.00
12969;BME280;6549;53.128;8.182;2023-04-09T01:57:08;102460.06;;;7.38;100.00
12969;BME280;6549;53.128;8.182;2023-04-09T02:00:09;102459.56;;;7.36;100.00
12969;BME280;6549;53.128;8.182;2023-04-09T02:03:15;102461.50;;;7.35;100.00
12969;BME280;6549;53.128;8.182;2023-04-09T02:06:39;102462.44;;;7.39;100.00
12969;BME280;6549;53.128;8.182;2023-04-09T02:09:42;102456.97;;;7.39;100.00
12969;BME280;6549;53.128;8.182;2023-04-09T02:12:52;102459.72;;;7.39;100.00
12969;BME280;6549;53.128;8.182;2023-04-09T02:15:53;102452.81;;;7.42;100.00
12969;BME280;6549;53.128;8.182;2023-04-09T02:18:55;102455.25;;;7.43;100.00
12969;BME280;6549;53.128;8.182;2023-04-09T02:21:56;102454.59;;;7.46;100.00
12969;BME280;6549;53.128;8.182;2023-04-09T02:24:56;102453.78;;;7.46;100.00
12969;BME280;6549;53.128;8.182;2023-04-09T02:27:56;102460.38;;;7.45;100.00
12969;BME280;6549;53.128;8.182;2023-04-09T02:30:56;102454.88;;;7.53;100.00
12969;BME280;6549;53.128;8.182;2023-04-09T02:33:57;102452.31;;;7.48;100.00
12969;BME280;6549;53.128;8.182;2023-04-09T02:36:57;102446.53;;;7.41;100.00
12969;BME280;6549;53.128;8.182;2023-04-09T02:39:57;102448.00;;;7.30;100.00
12969;BME280;6549;53.128;8.182;2023-04-09T02:42:58;102442.69;;;7.25;100.00
12969;BME280;6549;53.128;8.182;2023-04-09T02:45:58;102441.53;;;7.26;100.00
12969;BME280;6549;53.128;8.182;2023-04-09T02:48:58;102440.59;;;7.22;100.00
12969;BME280;6549;53.128;8.182;2023-04-09T02:51:59;102436.72;;;7.23;100.00
12969;BME280;6549;53.128;8.182;2023-04-09T02:54:59;102430.28;;;7.28;100.00
12969;BME280;6549;53.128;8.182;2023-04-09T02:57:59;102431.25;;;7.23;100.00
12969;BME280;6549;53.128;8.182;2023-04-09T03:01:00;102430.13;;;7.24;100.00
12969;BME280;6549;53.128;8.182;2023-04-09T03:04:00;102415.34;;;7.25;100.00
12969;BME280;6549;53.128;8.182;2023-04-09T03:07:01;102420.00;;;7.25;100.00
12969;BME280;6549;53.128;8.182;2023-04-09T03:10:01;102419.34;;;7.19;100.00
12969;BME280;6549;53.128;8.182;2023-04-09T03:13:01;102418.41;;;7.15;100.00
12969;BME280;6549;53.128;8.182;2023-04-09T03:16:02;102414.69;;;7.28;100.00
12969;BME280;6549;53.128;8.182;2023-04-09T03:19:02;102412.13;;;7.23;100.00
12969;BME280;6549;53.128;8.182;2023-04-09T03:22:02;102411.66;;;7.21;100.00
12969;BME280;6549;53.128;8.182;2023-04-09T03:25:03;102412.63;;;7.16;100.00
12969;BME280;6549;53.128;8.182;2023-04-09T03:28:03;102411.16;;;7.19;100.00
12969;BME280;6549;53.128;8.182;2023-04-09T03:31:04;102411.16;;;7.19;100.00
12969;BME280;6549;53.128;8.182;2023-04-09T03:34:04;102403.91;;;7.14;100.00
12969;BME280;6549;53.128;8.182;2023-04-09T03:37:05;102411.97;;;7.19;100.00
12969;BME280;6549;53.128;8.182;2023-04-09T03:40:05;102404.06;;;7.18;100.00
12969;BME280;6549;53.128;8.182;2023-04-09T03:43:06;102401.50;;;7.13;100.00
12969;BME280;6549;53.128;8.182;2023-04-09T03:46:15;102397.50;;;7.19;100.00
12969;BME280;6549;53.128;8.182;2023-04-09T03:49:16;102399.09;;;7.11;100.00
12969;BME280;6549;53.128;8.182;2023-04-09T03:52:16;102404.41;;;7.08;100.00
12969;BME280;6549;53.128;8.182;2023-04-09T03:55:17;102405.19;;;7.08;100.00
12969;BME280;6549;53.128;8.182;2023-04-09T03:58:17;102397.50;;;7.02;100.00
12969;BME280;6549;53.128;8.182;2023-04-09T04:01:17;102393.66;;;7.03;100.00
12969;BME280;6549;53.128;8.182;2023-04-09T04:04:18;102393.31;;;6.96;100.00
12969;BME280;6549;53.128;8.182;2023-04-09T04:07:18;102395.56;;;6.94;100.00
12969;BME280;6549;53.128;8.182;2023-04-09T04:10:18;102399.41;;;6.93;100.00
12969;BME280;6549;53.128;8.182;2023-04-09T04:13:19;102401.19;;;6.97;100.00
12969;BME280;6549;53.128;8.182;2023-04-09T04:16:19;102400.06;;;6.98;100.00
12969;BME280;6549;53.128;8.182;2023-04-09T04:19:19;102391.06;;;6.98;100.00
12969;BME280;6549;53.128;8.182;2023-04-09T04:22:20;102399.56;;;6.96;100.00
12969;BME280;6549;53.128;8.182;2023-04-09T04:25:20;102406.00;;;6.92;100.00
12969;BME280;6549;53.128;8.182;2023-04-09T04:28:20;102395.88;;;6.92;100.00
12969;BME280;6549;53.128;8.182;2023-04-09T04:31:21;102396.19;;;6.91;100.00
12969;BME280;6549;53.128;8.182;2023-04-09T04:34:21;102407.63;;;6.93;100.00
12969;BME280;6549;53.128;8.182;2023-04-09T04:37:21;102402.97;;;6.93;100.00
12969;BME280;6549;53.128;8.182;2023-04-09T04:40:22;102408.41;;;6.93;100.00
12969;BME280;6549;53.128;8.182;2023-04-09T04:43:22;102410.50;;;6.88;100.00
12969;BME280;6549;53.128;8.182;2023-04-09T04:46:22;102417.09;;;6.87;100.00
12969;BME280;6549;53.128;8.182;2023-04-09T04:49:23;102412.25;;;6.84;100.00
12969;BME280;6549;53.128;8.182;2023-04-09T04:52:23;102420.47;;;6.84;100.00
12969;BME280;6549;53.128;8.182;2023-04-09T04:55:23;102422.38;;;6.83;100.00
12969;BME280;6549;53.128;8.182;2023-04-09T04:58:24;102426.75;;;6.84;100.00
12969;BME280;6549;53.128;8.182;2023-04-09T05:01:25;102419.34;;;6.85;100.00
12969;BME280;6549;53.128;8.182;2023-04-09T05:04:25;102423.69;;;6.86;100.00
12969;BME280;6549;53.128;8.182;2023-04-09T05:07:26;102420.47;;;6.84;100.00
12969;BME280;6549;53.128;8.182;2023-04-09T05:10:26;102423.69;;;6.86;100.00
12969;BME280;6549;53.128;8.182;2023-04-09T05:13:26;102421.28;;;6.84;100.00
12969;BME280;6549;53.128;8.182;2023-04-09T05:16:27;102427.03;;;6.83;100.00
12969;BME280;6549;53.128;8.182;2023-04-09T05:19:27;102428.97;;;6.82;100.00
12969;BME280;6549;53.128;8.182;2023-04-09T05:22:27;102429.94;;;6.86;100.00
12969;BME280;6549;53.128;8.182;2023-04-09T05:25:28;102427.88;;;6.92;100.00
12969;BME280;6549;53.128;8.182;2023-04-09T05:28:28;102428.66;;;6.92;100.00
12969;BME280;6549;53.128;8.182;2023-04-09T05:31:28;102426.75;;;6.93;100.00
12969;BME280;6549;53.128;8.182;2023-04-09T05:34:29;102428.81;;;6.96;100.00
12969;BME280;6549;53.128;8.182;2023-04-09T05:37:29;102432.06;;;6.98;100.00
12969;BME280;6549;53.128;8.182;2023-04-09T05:40:29;102428.38;;;7.02;100.00
12969;BME280;6549;53.128;8.182;2023-04-09T05:43:30;102431.72;;;6.99;100.00
12969;BME280;6549;53.128;8.182;2023-04-09T05:46:30;102435.44;;;7.03;100.00
12969;BME280;6549;53.128;8.182;2023-04-09T05:49:30;102440.44;;;7.10;100.00
12969;BME280;6549;53.128;8.182;2023-04-09T05:52:31;102441.53;;;7.09;100.00
12969;BME280;6549;53.128;8.182;2023-04-09T05:55:31;102438.66;;;7.22;100.00
12969;BME280;6549;53.128;8.182;2023-04-09T05:58:31;102435.91;;;7.22;100.00
12969;BME280;6549;53.128;8.182;2023-04-09T06:01:32;102443.00;;;7.32;100.00
12969;BME280;6549;53.128;8.182;2023-04-09T06:04:32;102441.53;;;7.26;100.00
12969;BME280;6549;53.128;8.182;2023-04-09T06:07:32;102437.53;;;7.32;100.00
12969;BME280;6549;53.128;8.182;2023-04-09T06:10:33;102437.22;;;7.42;100.00
12969;BME280;6549;53.128;8.182;2023-04-09T06:13:33;102444.13;;;7.65;100.00
12969;BME280;6549;53.128;8.182;2023-04-09T06:16:33;102438.00;;;8.15;100.00
12969;BME280;6549;53.128;8.182;2023-04-09T06:19:34;102437.22;;;8.52;100.00
12969;BME280;6549;53.128;8.182;2023-04-09T06:22:34;102442.34;;;8.83;100.00
12969;BME280;6549;53.128;8.182;2023-04-09T06:25:35;102440.72;;;8.62;100.00
12969;BME280;6549;53.128;8.182;2023-04-09T06:28:35;102443.34;;;8.79;100.00
12969;BME280;6549;53.128;8.182;2023-04-09T06:31:36;102434.34;;;8.99;100.00
12969;BME280;6549;53.128;8.182;2023-04-09T06:34:36;102436.28;;;9.40;100.00
12969;BME280;6549;53.128;8.182;2023-04-09T06:37:36;102444.31;;;9.78;100.00
12969;BME280;6549;53.128;8.182;2023-04-09T06:40:37;102447.31;;;10.09;100.00
12969;BME280;6549;53.128;8.182;2023-04-09T06:43:38;102447.91;;;10.15;100.00
12969;BME280;6549;53.128;8.182;2023-04-09T06:46:38;102461.94;;;10.34;100.00
12969;BME280;6549;53.128;8.182;2023-04-09T06:49:38;102453.69;;;10.22;100.00
12969;BME280;6549;53.128;8.182;2023-04-09T06:52:39;102460.22;;;10.29;100.00
12969;BME280;6549;53.128;8.182;2023-04-09T06:55:39;102453.31;;;10.11;100.00
12969;BME280;6549;53.128;8.182;2023-04-09T06:58:40;102450.94;;;10.46;100.00
12969;BME280;6549;53.128;8.182;2023-04-09T07:01:41;102450.63;;;10.48;100.00
12969;BME280;6549;53.128;8.182;2023-04-09T07:04:42;102455.88;;;10.65;100.00
12969;BME280;6549;53.128;8.182;2023-04-09T07:07:42;102458.84;;;10.72;100.00
12969;BME280;6549;53.128;8.182;2023-04-09T07:10:42;102452.13;;;10.57;100.00
12969;BME280;6549;53.128;8.182;2023-04-09T07:13:43;102461.63;;;10.48;100.00
12969;BME280;6549;53.128;8.182;2023-04-09T07:16:43;102454.41;;;10.31;100.00
12969;BME280;6549;53.128;8.182;2023-04-09T07:19:45;102461.03;;;10.30;100.00
12969;BME280;6549;53.128;8.182;2023-04-09T07:22:45;102465.56;;;9.69;100.00
12969;BME280;6549;53.128;8.182;2023-04-09T07:25:46;102462.81;;;9.69;100.00
12969;BME280;6549;53.128;8.182;2023-04-09T07:28:46;102466.31;;;10.02;100.00
12969;BME280;6549;53.128;8.182;2023-04-09T07:31:46;102473.28;;;10.32;100.00
12969;BME280;6549;53.128;8.182;2023-04-09T07:34:47;102475.56;;;10.67;100.00
12969;BME280;6549;53.128;8.182;2023-04-09T07:37:47;102480.16;;;10.39;100.00
12969;BME280;6549;53.128;8.182;2023-04-09T07:40:47;102471.59;;;9.95;100.00
12969;BME280;6549;53.128;8.182;2023-04-09T07:43:48;102478.53;;;10.25;100.00
12969;BME280;6549;53.128;8.182;2023-04-09T07:46:48;102473.06;;;10.62;100.00
12969;BME280;6549;53.128;8.182;2023-04-09T07:49:48;102474.31;;;10.64;100.00
12969;BME280;6549;53.128;8.182;2023-04-09T07:52:49;102479.06;;;11.28;100.00
12969;BME280;6549;53.128;8.182;2023-04-09T07:55:50;102476.84;;;11.34;100.00
12969;BME280;6549;53.128;8.182;2023-04-09T07:58:50;102479.44;;;11.14;100.00
12969;BME280;6549;53.128;8.182;2023-04-09T08:01:51;102473.09;;;11.54;100.00
12969;BME280;6549;53.128;8.182;2023-04-09T08:05:03;102471.78;;;11.76;100.00
12969;BME280;6549;53.128;8.182;2023-04-09T08:08:04;102479.75;;;12.40;100.00
12969;BME280;6549;53.128;8.182;2023-04-09T08:11:04;102484.00;;;12.53;100.00
12969;BME280;6549;53.128;8.182;2023-04-09T08:14:06;102472.28;;;12.09;100.00
12969;BME280;6549;53.128;8.182;2023-04-09T08:17:06;102468.03;;;12.27;100.00
12969;BME280;6549;53.128;8.182;2023-04-09T08:20:07;102470.94;;;12.50;100.00
12969;BME280;6549;53.128;8.182;2023-04-09T08:23:07;102470.53;;;12.48;100.00
12969;BME280;6549;53.128;8.182;2023-04-09T08:26:07;102467.28;;;12.61;100.00
12969;BME280;6549;53.128;8.182;2023-04-09T08:29:10;102479.56;;;12.64;100.00
12969;BME280;6549;53.128;8.182;2023-04-09T08:32:10;102472.03;;;12.30;100.00
12969;BME280;6549;53.128;8.182;2023-04-09T08:35:11;102474.06;;;12.64;100.00
12969;BME280;6549;53.128;8.182;2023-04-09T08:38:12;102466.69;;;12.37;100.00
12969;BME280;6549;53.128;8.182;2023-04-09T08:41:20;102467.50;;;12.88;100.00
12969;BME280;6549;53.128;8.182;2023-04-09T08:44:20;102469.06;;;12.54;100.00
12969;BME280;6549;53.128;8.182;2023-04-09T08:47:21;102471.28;;;13.15;100.00
12969;BME280;6549;53.128;8.182;2023-04-09T08:50:22;102466.56;;;13.73;100.00
12969;BME280;6549;53.128;8.182;2023-04-09T08:53:22;102458.19;;;13.27;100.00
12969;BME280;6549;53.128;8.182;2023-04-09T08:56:23;102454.47;;;13.58;100.00
12969;BME280;6549;53.128;8.182;2023-04-09T08:59:25;102467.53;;;14.03;100.00
12969;BME280;6549;53.128;8.182;2023-04-09T09:02:25;102459.63;;;14.02;100.00
12969;BME280;6549;53.128;8.182;2023-04-09T09:05:40;102457.34;;;13.84;100.00
12969;BME280;6549;53.128;8.182;2023-04-09T09:08:40;102455.28;;;14.46;100.00
12969;BME280;6549;53.128;8.182;2023-04-09T09:11:47;102454.41;;;14.19;100.00
12969;BME280;6549;53.128;8.182;2023-04-09T09:14:50;102456.28;;;14.61;100.00
12969;BME280;6549;53.128;8.182;2023-04-09T09:17:55;102450.34;;;15.15;100.00
12969;BME280;6549;53.128;8.182;2023-04-09T09:21:12;102455.81;;;14.81;100.00
12969;BME280;6549;53.128;8.182;2023-04-09T09:24:16;102452.44;;;15.21;100.00
12969;BME280;6549;53.128;8.182;2023-04-09T09:27:33;102447.25;;;15.20;100.00
12969;BME280;6549;53.128;8.182;2023-04-09T09:30:36;102454.75;;;14.90;97.97
12969;BME280;6549;53.128;8.182;2023-04-09T09:33:38;102444.69;;;14.52;99.01
12969;BME280;6549;53.128;8.182;2023-04-09T09:36:38;102445.47;;;15.05;97.57
12969;BME280;6549;53.128;8.182;2023-04-09T09:39:42;102435.53;;;15.30;100.00
12969;BME280;6549;53.128;8.182;2023-04-09T09:42:54;102434.44;;;15.08;91.10
12969;BME280;6549;53.128;8.182;2023-04-09T09:45:55;102435.75;;;15.18;91.86
12969;BME280;6549;53.128;8.182;2023-04-09T09:48:56;102434.06;;;15.40;93.28
12969;BME280;6549;53.128;8.182;2023-04-09T09:51:58;102426.69;;;15.88;88.92
12969;BME280;6549;53.128;8.182;2023-04-09T09:55:01;102429.34;;;16.21;82.30
12969;BME280;6549;53.128;8.182;2023-04-09T09:58:23;102426.53;;;16.14;86.62
12969;BME280;6549;53.128;8.182;2023-04-09T10:01:26;102426.53;;;16.65;81.65
12969;BME280;6549;53.128;8.182;2023-04-09T10:04:28;102430.00;;;16.04;77.85
12969;BME280;6549;53.128;8.182;2023-04-09T10:07:29;102423.91;;;16.32;81.29
12969;BME280;6549;53.128;8.182;2023-04-09T10:10:29;102417.25;;;17.05;74.93
12969;BME280;6549;53.128;8.182;2023-04-09T10:13:38;102416.94;;;16.55;75.04
12969;BME280;6549;53.128;8.182;2023-04-09T10:16:39;102423.47;;;16.81;77.11
12969;BME280;6549;53.128;8.182;2023-04-09T10:19:44;102422.09;;;16.53;73.83
12969;BME280;6549;53.128;8.182;2023-04-09T10:22:47;102418.13;;;16.07;75.51
12969;BME280;6549;53.128;8.182;2023-04-09T10:25:49;102409.50;;;16.15;80.37
12969;BME280;6549;53.128;8.182;2023-04-09T10:29:28;102415.53;;;15.47;76.08
12969;BME280;6549;53.128;8.182;2023-04-09T10:32:33;102405.25;;;15.48;80.38
12969;BME280;6549;53.128;8.182;2023-04-09T10:35:35;102397.56;;;15.67;76.19
12969;BME280;6549;53.128;8.182;2023-04-09T10:38:37;102396.81;;;16.66;75.56
12969;BME280;6549;53.128;8.182;2023-04-09T10:41:40;102397.81;;;17.01;68.81
12969;BME280;6549;53.128;8.182;2023-04-09T10:44:42;102389.38;;;16.84;66.21
12969;BME280;6549;53.128;8.182;2023-04-09T10:47:42;102389.34;;;16.77;68.87
12969;BME280;6549;53.128;8.182;2023-04-09T10:50:45;102383.00;;;16.80;67.05
12969;BME280;6549;53.128;8.182;2023-04-09T10:53:45;102395.56;;;16.05;68.13
12969;BME280;6549;53.128;8.182;2023-04-09T11:00:08;102393.41;;;16.35;69.12
12969;BME280;6549;53.128;8.182;2023-04-09T11:03:27;102388.94;;;16.75;68.44
12969;BME280;6549;53.128;8.182;2023-04-09T11:06:30;102373.47;;;16.74;69.99
12969;BME280;6549;53.128;8.182;2023-04-09T11:09:34;102364.66;;;17.58;66.01
12969;BME280;6549;53.128;8.182;2023-04-09T11:12:35;102368.25;;;17.76;65.15
12969;BME280;6549;53.128;8.182;2023-04-09T11:15:35;102369.84;;;17.88;64.43
12969;BME280;6549;53.128;8.182;2023-04-09T11:18:36;102363.91;;;18.11;59.58
12969;BME280;6549;53.128;8.182;2023-04-09T11:21:37;102367.44;;;18.61;63.00
12969;BME280;6549;53.128;8.182;2023-04-09T11:24:45;102354.66;;;18.77;56.78
12969;BME280;6549;53.128;8.182;2023-04-09T11:27:45;102355.50;;;18.60;57.19
12969;BME280;6549;53.128;8.182;2023-04-09T11:30:49;102354.34;;;17.59;59.84
12969;BME280;6549;53.128;8.182;2023-04-09T11:33:50;102350.78;;;18.25;61.67
12969;BME280;6549;53.128;8.182;2023-04-09T11:36:50;102357.94;;;18.09;55.87
12969;BME280;6549;53.128;8.182;2023-04-09T11:39:52;102352.66;;;17.29;56.73
12969;BME280;6549;53.128;8.182;2023-04-09T11:42:54;102347.63;;;17.95;55.29
12969;BME280;6549;53.128;8.182;2023-04-09T11:45:55;102341.25;;;18.23;54.81
12969;BME280;6549;53.128;8.182;2023-04-09T11:48:56;102346.75;;;18.62;53.70
12969;BME280;6549;53.128;8.182;2023-04-09T11:51:56;102349.97;;;18.53;51.11
12969;BME280;6549;53.128;8.182;2023-04-09T11:55:01;102341.91;;;18.80;53.18
12969;BME280;6549;53.128;8.182;2023-04-09T11:58:02;102348.31;;;18.70;52.69
12969;BME280;6549;53.128;8.182;2023-04-09T12:01:03;102347.16;;;18.50;51.94
12969;BME280;6549;53.128;8.182;2023-04-09T12:04:03;102345.22;;;18.25;53.32
12969;BME280;6549;53.128;8.182;2023-04-09T12:07:07;102337.69;;;18.19;55.29
12969;BME280;6549;53.128;8.182;2023-04-09T12:10:09;102338.06;;;18.21;53.94
12969;BME280;6549;53.128;8.182;2023-04-09T12:13:09;102343.63;;;17.92;55.29
12969;BME280;6549;53.128;8.182;2023-04-09T12:16:11;102331.34;;;17.83;54.31
12969;BME280;6549;53.128;8.182;2023-04-09T12:19:12;102329.56;;;17.04;54.60
12969;BME280;6549;53.128;8.182;2023-04-09T12:22:12;102321.66;;;17.13;56.98
12969;BME280;6549;53.128;8.182;2023-04-09T12:25:13;102328.00;;;16.34;57.58
12969;BME280;6549;53.128;8.182;2023-04-09T12:28:14;102330.16;;;16.00;59.84
12969;BME280;6549;53.128;8.182;2023-04-09T12:31:15;102327.16;;;16.27;60.41
12969;BME280;6549;53.128;8.182;2023-04-09T12:34:16;102325.75;;;16.50;59.79
12969;BME280;6549;53.128;8.182;2023-04-09T12:37:16;102335.09;;;16.93;59.58
12969;BME280;6549;53.128;8.182;2023-04-09T12:40:17;102332.13;;;17.69;57.43
12969;BME280;6549;53.128;8.182;2023-04-09T12:43:18;102322.94;;;17.47;55.96
12969;BME280;6549;53.128;8.182;2023-04-09T12:46:18;102329.56;;;17.04;56.22
12969;BME280;6549;53.128;8.182;2023-04-09T12:49:19;102313.63;;;16.87;56.91
12969;BME280;6549;53.128;8.182;2023-04-09T12:52:20;102318.81;;;16.92;55.77
12969;BME280;6549;53.128;8.182;2023-04-09T12:55:21;102312.13;;;17.03;55.99
12969;BME280;6549;53.128;8.182;2023-04-09T12:58:22;102318.84;;;16.99;56.24
12969;BME280;6549;53.128;8.182;2023-04-09T13:01:23;102318.56;;;17.50;55.63
12969;BME280;6549;53.128;8.182;2023-04-09T13:04:23;102315.44;;;18.08;56.46
12969;BME280;6549;53.128;8.182;2023-04-09T13:07:24;102316.16;;;18.37;54.56
12969;BME280;6549;53.128;8.182;2023-04-09T13:10:29;102304.69;;;17.89;53.53
12969;BME280;6549;53.128;8.182;2023-04-09T13:13:30;102317.19;;;16.87;53.75
12969;BME280;6549;53.128;8.182;2023-04-09T13:16:30;102314.56;;;17.30;53.72
12969;BME280;6549;53.128;8.182;2023-04-09T13:19:31;102316.56;;;17.58;53.08
12969;BME280;6549;53.128;8.182;2023-04-09T13:22:32;102311.38;;;17.28;52.30
12969;BME280;6549;53.128;8.182;2023-04-09T13:25:32;102305.66;;;16.78;52.74
12969;BME280;6549;53.128;8.182;2023-04-09T13:28:33;102293.09;;;16.26;55.18
12969;BME280;6549;53.128;8.182;2023-04-09T13:31:35;102290.16;;;15.54;55.50
12969;BME280;6549;53.128;8.182;2023-04-09T13:34:35;102295.31;;;15.18;58.84
12969;BME280;6549;53.128;8.182;2023-04-09T13:37:35;102292.69;;;15.33;58.61
12969;BME280;6549;53.128;8.182;2023-04-09T13:40:36;102289.47;;;15.67;59.12
12969;BME280;6549;53.128;8.182;2023-04-09T13:43:36;102292.94;;;16.05;58.95
12969;BME280;6549;53.128;8.182;2023-04-09T13:46:36;102277.94;;;16.09;57.34
12969;BME280;6549;53.128;8.182;2023-04-09T13:49:37;102272.63;;;16.55;55.49
12969;BME280;6549;53.128;8.182;2023-04-09T13:52:38;102275.97;;;16.96;55.31
12969;BME280;6549;53.128;8.182;2023-04-09T13:55:38;102273.25;;;17.07;52.39
12969;BME280;6549;53.128;8.182;2023-04-09T13:58:39;102270.31;;;16.65;53.20
12969;BME280;6549;53.128;8.182;2023-04-09T14:01:39;102265.56;;;16.65;53.00
12969;BME280;6549;53.128;8.182;2023-04-09T14:04:40;102254.53;;;16.83;52.69
12969;BME280;6549;53.128;8.182;2023-04-09T14:07:40;102256.88;;;16.74;53.42
12969;BME280;6549;53.128;8.182;2023-04-09T14:10:41;102252.84;;;16.64;54.42
12969;BME280;6549;53.128;8.182;2023-04-09T14:13:41;102244.69;;;16.20;53.89
12969;BME280;6549;53.128;8.182;2023-04-09T14:16:41;102245.69;;;15.87;54.83
12969;BME280;6549;53.128;8.182;2023-04-09T14:19:42;102250.44;;;15.87;55.26
12969;BME280;6549;53.128;8.182;2023-04-09T14:22:42;102251.72;;;16.00;54.04
12969;BME280;6549;53.128;8.182;2023-04-09T14:25:48;102250.09;;;15.95;53.38
12969;BME280;6549;53.128;8.182;2023-04-09T14:28:48;102251.94;;;16.39;54.42
12969;BME280;6549;53.128;8.182;2023-04-09T14:31:48;102254.00;;;16.56;52.19
12969;BME280;6549;53.128;8.182;2023-04-09T14:34:49;102250.03;;;16.53;52.42
12969;BME280;6549;53.128;8.182;2023-04-09T14:37:49;102244.63;;;16.06;52.02
12969;BME280;6549;53.128;8.182;2023-04-09T14:40:50;102237.41;;;15.91;53.63
12969;BME280;6549;53.128;8.182;2023-04-09T14:43:50;102233.34;;;15.74;53.54
12969;BME280;6549;53.128;8.182;2023-04-09T14:46:50;102230.00;;;15.54;54.74
12969;BME280;6549;53.128;8.182;2023-04-09T14:49:53;102235.56;;;15.58;52.60
12969;BME280;6549;53.128;8.182;2023-04-09T14:52:53;102230.22;;;15.83;53.81
12969;BME280;6549;53.128;8.182;2023-04-09T14:55:54;102231.34;;;15.75;52.64
12969;BME280;6549;53.128;8.182;2023-04-09T14:58:54;102239.81;;;15.96;52.41
12969;BME280;6549;53.128;8.182;2023-04-09T15:01:55;102238.97;;;15.88;55.45
12969;BME280;6549;53.128;8.182;2023-04-09T15:04:55;102242.69;;;16.13;53.44
12969;BME280;6549;53.128;8.182;2023-04-09T15:07:56;102247.19;;;16.39;52.89
12969;BME280;6549;53.128;8.182;2023-04-09T15:10:56;102251.13;;;16.38;52.13
12969;BME280;6549;53.128;8.182;2023-04-09T15:13:56;102243.69;;;16.56;52.53
12969;BME280;6549;53.128;8.182;2023-04-09T15:16:57;102245.91;;;16.19;52.26
12969;BME280;6549;53.128;8.182;2023-04-09T15:19:57;102252.44;;;15.93;52.83
12969;BME280;6549;53.128;8.182;2023-04-09T15:22:57;102247.53;;;15.65;53.48
12969;BME280;6549;53.128;8.182;2023-04-09T15:25:58;102230.69;;;15.92;53.86
12969;BME280;6549;53.128;8.182;2023-04-09T15:29:04;102232.22;;;15.86;53.47
12969;BME280;6549;53.128;8.182;2023-04-09T15:32:05;102224.66;;;15.79;54.13
12969;BME280;6549;53.128;8.182;2023-04-09T15:35:06;102233.78;;;15.80;54.22
12969;BME280;6549;53.128;8.182;2023-04-09T15:38:06;102232.56;;;15.81;53.44
12969;BME280;6549;53.128;8.182;2023-04-09T15:41:06;102238.94;;;15.85;53.00
12969;BME280;6549;53.128;8.182;2023-04-09T15:44:07;102229.91;;;15.47;53.09
12969;BME280;6549;53.128;8.182;2023-04-09T15:47:07;102227.44;;;14.95;53.27
12969;BME280;6549;53.128;8.182;2023-04-09T15:50:09;102221.78;;;14.84;54.93
12969;BME280;6549;53.128;8.182;2023-04-09T15:53:09;102221.63;;;15.07;54.78
12969;BME280;6549;53.128;8.182;2023-04-09T15:56:12;102222.50;;;15.14;54.41
12969;BME280;6549;53.128;8.182;2023-04-09T15:59:15;102215.78;;;15.15;55.32
12969;BME280;6549;53.128;8.182;2023-04-09T16:02:18;102217.59;;;15.41;54.86
12969;BME280;6549;53.128;8.182;2023-04-09T16:05:18;102222.78;;;15.46;53.80
12969;BME280;6549;53.128;8.182;2023-04-09T16:08:19;102221.78;;;15.21;53.53
12969;BME280;6549;53.128;8.182;2023-04-09T16:11:19;102219.53;;;15.37;54.59